Airport View

Enter AWOS ICAO identifier for current METAR.

ex. KFNL

KVLD 191900Z VRB05KT 10SM BKN021 29/24 A2993 RMK AO2 T02890244

19 Jun 2019 19:17

Frequency: 126.225

Phone: 229-245-8746

Other Area AWOS: KVAD - KHOE - K24J - KTVI

TAF KVLD 191727Z 1918/2018 22005KT P6SM BKN050 BKN100 FM200000 VRB03KT P6SM SCT250 FM201500 24006KT P6SM SCT050 BKN250 PROB30 2015/2018 P6SM TS BKN050CB